Aviation Digital Data Service (ADDS)

Output produced by METARs form (1537 UTC 25 June 2017)
found at http://aviationweather.gov/adds/metars/
 
KSSI 251120Z 2512/2612 22008KT P6SM FEW030 SCT250 
     FM251800 17010KT P6SM VCTS SCT040CB BKN200 
     FM252200 VRB06KT 5SM -TSRA SCT025 BKN035CB 
     PROB30 2523/2603 VRB20G30KT 1SM +TSRA BKN015CB 
     FM260600 VRB05KT P6SM SCT100 BKN200